Terminal Aerodrome Forecast
Issued by NWS Flagstaff, AZ

Home | Current Version | Previous Version | Text Only | Print | Product List | Glossary On
Versions: 1 2 3 4 5 6 7 8 9 10 11 12 13 14 15 16 17 18
000
FTUS45 KFGZ 011100
TAFFLG
TAF
KFLG 011128Z 0112/0212 VRB03KT P6SM -SHRA SCT070 BKN100 BKN200
     FM011300 VRB03KT P6SM FEW070 SCT120 BKN200
     FM011700 VRB06KT P6SM SCT070 BKN120
      TEMPO 0118/0122 VRB15G25KT 5SM TSRA BKN050CB
     FM012200 VRB05KT P6SM BKN080 PROB30 0122/0204 -SHRA BKN050
     FM020500 VRB03KT P6SM SCT100=

USA.gov is the U.S. government's official web portal to all federal, state and local government web resources and services.